.
WxDataArchive / Data Records for 2013-03-09
2013-03-08 March 2013 2013-03-10

Data Records for Saturday, 09 March 2013

Time	Temp	Chill	HIndex	Humid	Dewpt	 Wind 	HiWind	WindDir	Rain 	Barom 
-----	----	-----	------	-----	-----	------	------	-------	-----	----- 
00:00	23.8	23.8	23.8	86	20.2	0	0	---	0.00	30.424 
00:05	23.8	23.8	23.8	86	20.2	0	0	---	0.00	30.424 
00:10	23.6	23.6	23.6	86	20.0	0	0	---	0.00	30.424 
00:15	23.6	23.6	23.6	86	20.0	0	0	---	0.00	30.421 
00:20	23.5	23.5	23.5	87	20.2	0	0	---	0.00	30.421 
00:25	23.5	23.5	23.5	87	20.2	0	0	---	0.00	30.421 
00:30	23.5	23.5	23.5	87	20.2	0	0	---	0.00	30.421 
00:35	23.3	23.3	23.3	87	20.0	0	0	---	0.00	30.421 
00:40	23.2	23.2	23.2	87	19.9	0	0	---	0.00	30.421 
00:45	23.0	23.0	23.0	87	19.7	0	0	---	0.00	30.407 
00:50	23.0	23.0	23.0	88	20.0	0	0	---	0.00	30.407 
00:55	23.0	23.0	23.0	88	20.0	0	0	---	0.00	30.407 
01:00	22.9	22.9	22.9	88	19.9	0	0	---	0.00	30.403 
01:05	22.7	22.7	22.7	88	19.7	0	0	---	0.00	30.403 
01:10	22.5	22.5	22.5	88	19.5	0	0	---	0.00	30.403 
01:15	22.5	22.5	22.5	88	19.5	0	0	---	0.00	30.404 
01:20	22.5	22.5	22.5	88	19.5	0	0	---	0.00	30.404 
01:25	22.4	22.4	22.4	88	19.4	0	0	---	0.00	30.404 
01:30	22.4	22.4	22.4	88	19.4	0	0	---	0.00	30.406 
01:35	22.4	22.4	22.4	88	19.4	0	0	---	0.00	30.406 
01:40	22.4	22.4	22.4	88	19.4	0	0	---	0.00	30.406 
01:45	22.2	22.2	22.2	88	19.2	0	0	---	0.00	30.402 
01:50	22.2	22.2	22.2	88	19.2	0	0	---	0.00	30.402 
01:55	22.1	22.1	22.1	88	19.1	0	0	---	0.00	30.402 
02:00	22.1	22.1	22.1	88	19.1	0	0	---	0.00	30.396 
02:05	21.9	21.9	21.9	88	18.9	0	0	---	0.00	30.396 
02:10	21.9	21.9	21.9	88	18.9	0	0	---	0.00	30.396 
02:15	21.8	21.8	21.8	88	18.8	0	0	---	0.00	30.392 
02:20	21.8	21.8	21.8	89	19.1	0	0	---	0.00	30.392 
02:25	21.9	21.9	21.9	89	19.2	0	0	---	0.00	30.392 
02:30	21.9	21.9	21.9	89	19.2	0	0	---	0.00	30.377 
02:35	21.9	21.9	21.9	89	19.2	0	0	---	0.00	30.377 
02:40	21.9	21.9	21.9	89	19.2	0	0	---	0.00	30.377 
02:45	21.9	21.9	21.9	89	19.2	0	0	---	0.00	30.375 
02:50	21.8	21.8	21.8	89	19.1	0	0	---	0.00	30.375 
02:55	21.4	21.4	21.4	89	18.7	0	0	---	0.00	30.375 
03:00	21.3	21.3	21.3	89	18.6	0	0	---	0.00	30.369 
03:05	21.1	21.1	21.1	89	18.4	0	0	---	0.00	30.369 
03:10	21.0	21.0	21.0	89	18.3	0	0	---	0.00	30.369 
03:15	21.0	21.0	21.0	89	18.3	0	0	---	0.00	30.361 
03:20	20.8	20.8	20.8	89	18.1	0	0	---	0.00	30.361 
03:25	20.6	20.6	20.6	89	17.9	0	0	---	0.00	30.361 
03:30	20.6	20.6	20.6	89	17.9	0	0	---	0.00	30.360 
03:35	20.6	20.6	20.6	89	17.9	0	0	---	0.00	30.360 
03:40	20.8	20.8	20.8	89	18.1	0	0	---	0.00	30.360 
03:45	20.8	20.8	20.8	89	18.1	0	0	---	0.00	30.352 
03:50	20.8	20.8	20.8	89	18.1	0	0	---	0.00	30.352 
03:55	20.8	20.8	20.8	89	18.1	0	0	---	0.00	30.352 
04:00	20.6	20.6	20.6	89	17.9	0	0	---	0.00	30.351 
04:05	20.5	20.5	20.5	89	17.8	0	0	---	0.00	30.351 
04:10	20.3	20.3	20.3	89	17.6	0	0	---	0.00	30.351 
04:15	20.3	20.3	20.3	89	17.6	0	0	---	0.00	30.349 
04:20	20.3	20.3	20.3	90	17.8	0	0	---	0.00	30.349 
04:25	20.6	20.6	20.6	90	18.1	0	0	---	0.00	30.349 
04:30	20.6	20.6	20.6	90	18.1	0	0	---	0.00	30.351 
04:35	20.6	20.6	20.6	90	18.1	0	0	---	0.00	30.351 
04:40	20.5	20.5	20.5	90	18.0	0	0	---	0.00	30.351 
04:45	20.3	20.3	20.3	90	17.8	0	0	---	0.00	30.351 
04:50	20.2	20.2	20.2	89	17.5	0	0	---	0.00	30.351 
04:55	20.2	20.2	20.2	90	17.7	0	0	---	0.00	30.351 
05:00	20.2	20.2	20.2	90	17.7	0	0	---	0.00	30.349 
05:05	20.3	20.3	20.3	90	17.8	0	0	---	0.00	30.349 
05:10	20.6	20.6	20.6	90	18.1	0	0	---	0.00	30.349 
05:15	20.8	20.8	20.8	90	18.3	0	0	---	0.00	30.357 
05:20	20.8	20.8	20.8	90	18.3	0	0	---	0.00	30.357 
05:25	20.8	20.8	20.8	90	18.3	0	1	90	0.00	30.357 
05:30	21.0	21.0	21.0	90	18.5	0	0	---	0.00	30.350 
05:35	21.0	21.0	21.0	90	18.5	0	0	---	0.00	30.350 
05:40	21.0	21.0	21.0	90	18.5	0	0	---	0.00	30.350 
05:45	21.0	21.0	21.0	90	18.5	0	0	---	0.00	30.347 
05:50	21.0	21.0	21.0	90	18.5	0	0	---	0.00	30.347 
05:55	21.1	21.1	21.1	91	18.9	0	0	---	0.00	30.347 
06:00	21.4	21.4	21.4	91	19.2	0	0	---	0.00	30.346 
06:05	21.8	21.8	21.8	91	19.6	0	0	---	0.00	30.346 
06:10	22.1	22.1	22.1	91	19.9	0	0	---	0.00	30.346 
06:15	22.2	22.2	22.2	91	20.0	0	0	---	0.00	30.339 
06:20	23.2	23.2	23.2	92	21.2	1	3	90	0.00	30.339 
06:25	24.4	24.4	24.4	92	22.4	1	3	90	0.00	30.339 
06:30	25.0	25.0	25.0	92	23.0	0	2	90	0.00	30.330 
06:35	25.4	25.4	25.4	91	23.1	1	2	90	0.00	30.330 
06:40	25.7	25.7	25.7	91	23.4	1	3	90	0.00	30.330 
06:45	25.8	25.8	25.8	90	23.3	0	1	90	0.00	30.328 
06:50	26.0	26.0	26.0	90	23.5	0	1	90	0.00	30.328 
06:55	26.0	26.0	26.0	89	23.2	0	1	90	0.00	30.328 
07:00	25.8	25.8	25.8	89	23.0	0	0	---	0.00	30.342 
07:05	25.8	25.8	25.8	89	23.0	0	0	---	0.00	30.342 
07:10	25.7	25.7	25.7	89	22.9	0	1	90	0.00	30.342 
07:15	25.8	25.8	25.8	89	23.0	0	2	90	0.00	30.340 
07:20	26.3	26.3	26.3	89	23.5	0	2	90	0.00	30.340 
07:25	26.6	26.6	26.6	88	23.5	0	1	90	0.00	30.340 
07:30	26.7	26.7	26.7	88	23.6	0	1	90	0.00	30.336 
07:35	26.9	26.9	26.9	88	23.8	0	0	---	0.00	30.336 
07:40	27.0	27.0	27.0	88	23.9	0	1	90	0.00	30.336 
07:45	27.3	27.3	27.3	88	24.2	0	1	90	0.00	30.336 
07:50	27.6	27.6	27.6	87	24.2	1	3	90	0.00	30.336 
07:55	27.6	27.6	27.6	86	24.0	1	2	90	0.00	30.336 
08:00	27.8	27.8	27.8	86	24.2	1	3	90	0.00	30.331 
08:05	28.1	28.1	28.1	85	24.2	1	2	90	0.00	30.331 
08:10	28.5	28.5	28.5	85	24.6	0	2	90	0.00	30.331 
08:15	29.1	29.1	29.1	84	24.9	2	4	90	0.00	30.341 
08:20	29.5	29.5	29.5	83	25.0	1	3	90	0.00	30.341 
08:25	29.7	29.7	29.7	82	24.9	2	3	90	0.00	30.341 
08:30	29.8	29.8	29.8	82	25.0	2	4	90	0.00	30.337 
08:35	30.0	30.0	30.0	82	25.2	1	4	90	0.00	30.337 
08:40	30.3	30.3	30.3	81	25.2	2	5	90	0.00	30.337 
08:45	30.7	30.7	30.7	80	25.3	2	4	90	0.00	30.335 
08:50	31.0	31.0	31.0	79	25.3	2	6	90	0.00	30.335 
08:55	31.2	31.2	31.2	79	25.5	2	4	90	0.00	30.335 
09:00	31.5	31.5	31.5	79	25.8	1	4	90	0.00	30.338 
09:05	31.8	31.8	31.8	78	25.7	1	3	90	0.00	30.338 
09:10	32.1	32.1	32.1	77	25.7	2	4	90	0.00	30.338 
09:15	32.7	32.7	32.7	77	26.3	1	3	90	0.00	30.352 
09:20	33.7	33.7	33.7	75	26.6	1	3	90	0.00	30.352 
09:25	34.6	34.6	34.6	73	26.9	1	2	90	0.00	30.352 
09:30	34.6	34.6	34.6	72	26.5	2	7	90	0.00	30.340 
09:35	34.4	34.4	34.4	73	26.7	1	4	90	0.00	30.340 
09:40	34.7	34.7	34.7	72	26.6	2	6	90	0.00	30.340 
09:45	35.3	35.3	35.3	71	26.9	1	5	90	0.00	30.340 
09:50	35.6	35.6	35.6	70	26.8	1	4	90	0.00	30.340 
09:55	35.8	35.8	35.8	71	27.3	1	4	90	0.00	30.340 
10:00	35.9	35.9	35.9	70	27.1	1	3	90	0.00	30.322 
10:05	36.0	36.0	36.0	70	27.2	1	4	90	0.00	30.322 
10:10	36.6	36.6	36.6	69	27.4	1	4	90	0.00	30.322 
10:15	37.0	37.0	37.0	68	27.4	1	5	112	0.00	30.326 
10:20	37.5	37.5	37.5	67	27.6	1	3	90	0.00	30.326 
10:25	37.8	37.8	37.8	65	27.1	2	4	90	0.00	30.326 
10:30	37.6	37.6	37.6	66	27.3	1	4	112	0.00	30.327 
10:35	37.6	37.6	37.6	65	26.9	1	5	90	0.00	30.327 
10:40	37.8	37.8	37.8	66	27.5	1	4	90	0.00	30.327 
10:45	37.9	37.9	37.9	66	27.6	1	4	112	0.00	30.322 
10:50	38.0	38.0	38.0	65	27.3	1	5	112	0.00	30.322 
10:55	38.2	38.2	38.2	65	27.5	1	5	112	0.00	30.322 
11:00	38.2	38.2	38.2	65	27.5	1	4	112	0.00	30.323 
11:05	38.3	38.3	38.3	65	27.6	1	3	112	0.00	30.323 
11:10	38.3	38.3	38.3	65	27.6	1	3	112	0.00	30.323 
11:15	38.3	38.3	38.3	65	27.6	1	4	112	0.00	30.320 
11:20	38.3	38.3	38.3	65	27.6	1	4	112	0.00	30.320 
11:25	38.3	38.3	38.3	65	27.6	2	4	112	0.00	30.320 
11:30	38.3	38.3	38.3	65	27.6	1	3	112	0.00	30.315 
11:35	38.6	38.6	38.6	65	27.9	1	4	112	0.00	30.315 
11:40	38.8	38.8	38.8	64	27.7	2	7	112	0.00	30.315 
11:45	38.5	38.5	38.5	65	27.8	3	10	90	0.00	30.295 
11:50	38.3	38.3	38.3	65	27.6	3	7	90	0.00	30.295 
11:55	38.3	38.3	38.3	66	28.0	2	6	112	0.00	30.295 
12:00	38.2	38.2	38.2	66	27.9	3	7	90	0.00	30.293 
12:05	38.2	35.2	38.2	66	27.9	4	7	90	0.00	30.293 
12:10	38.5	38.5	38.5	66	28.1	2	6	112	0.00	30.293 
12:15	38.9	38.9	38.9	65	28.2	1	4	112	0.00	30.300 
12:20	39.2	39.2	39.2	65	28.4	2	6	112	0.00	30.300 
12:25	39.5	39.5	39.5	64	28.3	1	3	112	0.00	30.300 
12:30	39.9	39.9	39.9	63	28.3	1	3	135	0.00	30.295 
12:35	39.8	39.8	39.8	64	28.6	3	6	90	0.00	30.295 
12:40	39.3	39.3	39.3	64	28.2	3	7	90	0.00	30.295 
12:45	39.3	39.3	39.3	65	28.5	1	5	112	0.00	30.283 
12:50	39.5	39.5	39.5	64	28.3	2	5	112	0.00	30.283 
12:55	39.5	39.5	39.5	64	28.3	1	5	68	0.00	30.283 
13:00	39.6	39.6	39.6	64	28.4	1	3	90	0.00	30.275 
13:05	39.6	39.6	39.6	64	28.4	1	4	90	0.00	30.275 
13:10	39.9	39.9	39.9	64	28.7	1	4	90	0.00	30.275 
13:15	39.9	39.9	39.9	64	28.7	2	5	112	0.00	30.261 
13:20	40.1	40.1	40.1	64	28.9	2	6	112	0.00	30.261 
13:25	40.1	40.1	40.1	64	28.9	2	5	90	0.00	30.261 
13:30	40.1	40.1	40.1	64	28.9	2	6	112	0.00	30.247 
13:35	40.1	40.1	40.1	65	29.3	2	9	90	0.00	30.247 
13:40	40.1	37.4	40.1	64	28.9	4	9	90	0.00	30.247 
13:45	39.8	37.1	39.8	65	29.0	4	10	90	0.00	30.230 
13:50	40.1	40.1	40.1	65	29.3	1	4	90	0.00	30.230 
13:55	40.2	40.2	40.2	64	29.0	3	9	90	0.00	30.230 
14:00	40.2	40.2	40.2	65	29.4	3	7	90	0.00	30.218 
14:05	40.2	40.2	40.2	65	29.4	3	7	90	0.00	30.218 
14:10	40.5	40.5	40.5	64	29.3	2	6	90	0.00	30.218 
14:15	40.3	37.7	40.3	63	28.7	4	10	90	0.00	30.207 
14:20	40.1	40.1	40.1	64	28.9	3	5	90	0.00	30.207 
14:25	40.1	40.1	40.1	65	29.3	2	11	112	0.00	30.207 
14:30	40.3	40.3	40.3	65	29.5	2	4	112	0.00	30.201 
14:35	40.3	40.3	40.3	65	29.5	2	6	90	0.00	30.201 
14:40	40.5	40.5	40.5	64	29.3	2	6	90	0.00	30.201 
14:45	40.6	40.6	40.6	65	29.8	1	5	90	0.00	30.197 
14:50	40.6	40.6	40.6	65	29.8	2	6	90	0.00	30.197 
14:55	40.6	40.6	40.6	66	30.1	2	6	112	0.00	30.197 
15:00	40.5	40.5	40.5	65	29.7	2	6	90	0.00	30.182 
15:05	40.5	40.5	40.5	65	29.7	2	6	112	0.00	30.182 
15:10	40.5	40.5	40.5	65	29.7	2	6	112	0.00	30.182 
15:15	40.6	40.6	40.6	65	29.8	2	5	90	0.00	30.176 
15:20	40.8	40.8	40.8	65	30.0	2	4	90	0.00	30.176 
15:25	40.8	40.8	40.8	65	30.0	2	4	112	0.00	30.176 
15:30	40.8	40.8	40.8	65	30.0	2	5	90	0.00	30.171 
15:35	40.6	40.6	40.6	65	29.8	1	4	90	0.00	30.171 
15:40	40.6	40.6	40.6	65	29.8	1	4	112	0.00	30.171 
15:45	40.5	40.5	40.5	66	30.0	2	5	112	0.00	30.167 
15:50	40.3	40.3	40.3	66	29.9	2	9	90	0.00	30.167 
15:55	40.2	40.2	40.2	66	29.8	2	6	90	0.00	30.167 
16:00	40.2	40.2	40.2	66	29.8	3	6	90	0.00	30.153 
16:05	40.2	40.2	40.2	66	29.8	3	6	90	0.00	30.153 
16:10	40.2	37.5	40.2	66	29.8	4	7	90	0.00	30.153 
16:15	40.1	40.1	40.1	66	29.7	3	6	90	0.00	30.151 
16:20	40.1	40.1	40.1	67	30.0	3	5	90	0.00	30.151 
16:25	40.1	40.1	40.1	67	30.0	2	6	112	0.00	30.151 
16:30	40.1	40.1	40.1	67	30.0	1	4	90	0.00	30.151 
16:35	40.1	40.1	40.1	67	30.0	1	4	90	0.00	30.151 
16:40	40.1	40.1	40.1	67	30.0	1	3	90	0.00	30.151 
16:45	40.1	40.1	40.1	67	30.0	1	4	112	0.00	30.142 
16:50	40.1	40.1	40.1	67	30.0	1	6	90	0.00	30.142 
16:55	40.1	40.1	40.1	67	30.0	2	5	90	0.00	30.142 
17:00	40.1	40.1	40.1	67	30.0	3	7	90	0.00	30.131 
17:05	39.9	39.9	39.9	67	29.8	3	6	112	0.00	30.131 
17:10	39.9	39.9	39.9	67	29.8	2	6	90	0.00	30.131 
17:15	39.9	39.9	39.9	66	29.5	2	7	90	0.00	30.129 
17:20	39.9	39.9	39.9	66	29.5	3	6	90	0.00	30.129 
17:25	39.8	39.8	39.8	66	29.4	2	6	112	0.00	30.129 
17:30	39.8	39.8	39.8	66	29.4	2	5	112	0.00	30.120 
17:35	39.8	39.8	39.8	67	29.8	3	6	90	0.00	30.120 
17:40	39.8	39.8	39.8	67	29.8	1	3	90	0.00	30.120 
17:45	39.8	39.8	39.8	67	29.8	0	2	112	0.00	30.120 
17:50	39.8	39.8	39.8	67	29.8	0	2	112	0.00	30.120 
17:55	39.6	39.6	39.6	68	29.9	2	5	112	0.00	30.120 
18:00	39.6	39.6	39.6	68	29.9	1	6	112	0.00	30.121 
18:05	39.6	39.6	39.6	69	30.3	1	3	112	0.00	30.121 
18:10	39.5	39.5	39.5	70	30.5	0	2	112	0.00	30.121 
18:15	39.3	39.3	39.3	70	30.3	1	3	112	0.00	30.114 
18:20	39.2	39.2	39.2	71	30.6	1	3	112	0.00	30.114 
18:25	39.1	39.1	39.1	72	30.8	0	3	112	0.00	30.114 
18:30	38.9	38.9	38.9	73	31.0	0	3	90	0.00	30.113 
18:35	38.8	38.8	38.8	73	30.9	1	3	90	0.00	30.113 
18:40	38.6	38.6	38.6	73	30.7	0	2	90	0.00	30.113 
18:45	38.6	38.6	38.6	73	30.7	0	2	135	0.00	30.118 
18:50	38.6	38.6	38.6	74	31.0	0	1	135	0.00	30.118 
18:55	38.6	38.6	38.6	75	31.4	0	2	135	0.00	30.118 
19:00	38.5	38.5	38.5	76	31.6	0	1	135	0.00	30.117 
19:05	38.5	38.5	38.5	77	31.9	0	1	135	0.00	30.117 
19:10	38.3	38.3	38.3	78	32.1	0	2	135	0.00	30.117 
19:15	38.2	38.2	38.2	79	32.3	0	3	135	0.00	30.112 
19:20	38.2	38.2	38.2	80	32.6	0	2	135	0.00	30.112 
19:25	37.9	37.9	37.9	81	32.6	1	3	135	0.00	30.112 
19:30	37.9	37.9	37.9	81	32.6	1	3	135	0.00	30.099 
19:35	37.9	37.9	37.9	82	32.9	1	3	135	0.01	30.099 
19:40	37.9	37.9	37.9	82	32.9	1	4	112	0.00	30.099 
19:45	37.9	37.9	37.9	83	33.2	0	2	112	0.00	30.092 
19:50	37.9	37.9	37.9	83	33.2	1	2	112	0.00	30.092 
19:55	37.9	37.9	37.9	84	33.5	1	3	112	0.00	30.092 
20:00	37.9	37.9	37.9	84	33.5	1	3	112	0.00	30.085 
20:05	37.9	37.9	37.9	84	33.5	1	3	112	0.00	30.085 
20:10	38.0	38.0	38.0	84	33.6	1	3	90	0.00	30.085 
20:15	38.0	38.0	38.0	83	33.3	1	3	90	0.00	30.079 
20:20	38.0	38.0	38.0	84	33.6	1	2	90	0.00	30.079 
20:25	38.0	38.0	38.0	84	33.6	1	3	90	0.00	30.079 
20:30	38.0	38.0	38.0	84	33.6	0	2	90	0.00	30.077 
20:35	38.0	38.0	38.0	84	33.6	1	2	90	0.00	30.077 
20:40	38.0	38.0	38.0	84	33.6	1	3	90	0.00	30.077 
20:45	38.2	38.2	38.2	83	33.5	1	2	90	0.00	30.066 
20:50	38.2	38.2	38.2	83	33.5	1	2	90	0.00	30.066 
20:55	38.3	38.3	38.3	83	33.6	1	3	90	0.00	30.066 
21:00	38.3	38.3	38.3	83	33.6	1	4	90	0.00	30.062 
21:05	38.5	38.5	38.5	82	33.5	1	3	90	0.00	30.062 
21:10	38.5	38.5	38.5	82	33.5	1	2	90	0.00	30.062 
21:15	38.5	38.5	38.5	82	33.5	1	3	90	0.00	30.049 
21:20	38.5	38.5	38.5	82	33.5	2	3	90	0.00	30.049 
21:25	38.5	38.5	38.5	82	33.5	1	3	90	0.00	30.049 
21:30	38.5	38.5	38.5	82	33.5	2	4	90	0.00	30.044 
21:35	38.5	38.5	38.5	82	33.5	1	2	90	0.00	30.044 
21:40	38.3	38.3	38.3	82	33.3	1	2	90	0.00	30.044 
21:45	38.2	38.2	38.2	82	33.2	1	3	90	0.00	30.036 
21:50	38.2	38.2	38.2	83	33.5	1	3	90	0.00	30.036 
21:55	38.2	38.2	38.2	83	33.5	1	3	90	0.00	30.036 
22:00	38.2	38.2	38.2	83	33.5	1	5	90	0.00	30.029 
22:05	38.2	38.2	38.2	82	33.2	2	3	90	0.00	30.029 
22:10	38.2	38.2	38.2	82	33.2	1	4	90	0.00	30.029 
22:15	38.2	38.2	38.2	82	33.2	1	3	90	0.00	30.015 
22:20	38.2	38.2	38.2	82	33.2	1	3	90	0.00	30.015 
22:25	38.2	38.2	38.2	82	33.2	0	2	90	0.00	30.015 
22:30	38.2	38.2	38.2	82	33.2	1	2	90	0.00	30.016 
22:35	38.2	38.2	38.2	82	33.2	1	2	90	0.00	30.016 
22:40	38.0	38.0	38.0	82	33.0	0	2	90	0.00	30.016 
22:45	38.0	38.0	38.0	82	33.0	0	1	90	0.00	30.014 
22:50	37.9	37.9	37.9	83	33.2	0	1	90	0.00	30.014 
22:55	37.8	37.8	37.8	83	33.1	0	2	90	0.00	30.014 
23:00	37.8	37.8	37.8	83	33.1	0	2	90	0.00	30.010 
23:05	37.9	37.9	37.9	83	33.2	0	1	90	0.00	30.010 
23:10	37.9	37.9	37.9	83	33.2	0	0	---	0.00	30.010 
23:15	37.9	37.9	37.9	83	33.2	0	0	---	0.00	30.001 
23:20	37.9	37.9	37.9	83	33.2	0	0	---	0.00	30.001 
23:25	37.9	37.9	37.9	83	33.2	0	2	90	0.00	30.001 
23:30	38.0	38.0	38.0	83	33.3	0	2	90	0.00	29.997 
23:35	38.0	38.0	38.0	83	33.3	0	0	---	0.00	29.997 
23:40	37.9	37.9	37.9	83	33.2	0	0	---	0.00	29.997 
23:45	37.6	37.6	37.6	83	32.9	0	0	---	0.00	29.996 
23:50	37.3	37.3	37.3	83	32.6	0	0	---	0.00	29.996 
23:55	37.2	37.2	37.2	83	32.5	0	0	---	0.00	29.996 

CoCoRaHS
IN-AL-39
A2 Web Hosting
Creative Commons License
GoDaddy
search engine by freefind advanced

loaded 2018-11-17 14:17:38 • last modified 2010-11-18 10:43:29
Privacy PolicyDisclaimer
• wx.awcolley.com is powered by PmWiki v.2002016 •
• all content (unless otherwise noted) © 2018 A W Colley